Jaffrey Airport Silver Ranch Airport

About

Name: Jaffrey Airport Silver Ranch Airport
Identifier:  AFN/KAFN
Local Time:  26. Jan 22:03 EST

Location

Jaffrey Airport Silver Ranch Airport

Statistics

Flights Per Day:
0 Flights
Distance: 488km (303mi)
Flights Delayed:
0% (0 Flights/Day Delayed)
Average Delay: 35 minutes

Current Weather

 2 C (Humidity: 69%)
  3kt (5km/h / 3mph) from 240°
  Overcast at 2,600 feet (792 meter)
  16km (10 mi.)
 METAR KAFN 270152Z AUTO 24003KT 10SM OVC026 02/M03 A2963 RMK AO2 SLP048 T00221028

Claim Compensation

Claim compensation for your flight delay or cancellation
Flight delays happen, but that doesn’t mean you have to accept them. You may be entitled to as much as €600/$700 in compensation if your flight has been delayed, canceled or overbooked within the last three years.

Current Delays

Departures

N/A

Arrivals

N/A

Destinations

Map

Top Destinations

Airport Flights
per week
Seats
per week
  Wildwood (WWD) 0 - 0 0

Airlines & Planes

Top Airlines

Airline Flights
per day
Seats
per day
  Nolinor Aviation 0 -

Top Models

model Flights seats
Cessna C172 0.0/day - 0